Time;durP1;ratioP1;P1;durP2;ratioP2;P2;SDS_P1;SDS_P2;PMS_P1;PMS_P2;Temp;Humidity;BMP_temperature;BMP_pressure;BME280_temperature;BME280_humidity;BME280_pressure;Samples;Min_cycle;Max_cycle;Signal;HPM_P1;HPM_P2
2022/06/25 00:00:35;;;;;;;2.03;1.70;;;19.20;99.30;;;;;;4953270;28;20063;-84
2022/06/25 00:03:00;;;;;;;3.88;1.60;;;19.20;98.90;;;;;;4954018;28;20099;-81
2022/06/25 00:05:29;;;;;;;7.03;1.67;;;19.40;98.50;;;;;;4956092;28;20042;-81
2022/06/25 00:07:55;;;;;;;3.25;1.23;;;19.50;98.40;;;;;;4941477;28;20042;-81
2022/06/25 00:10:21;;;;;;;6.45;1.50;;;19.50;98.10;;;;;;4972861;28;20094;-82
2022/06/25 00:12:47;;;;;;;5.35;1.80;;;19.50;97.90;;;;;;4958765;28;20042;-82
2022/06/25 00:15:12;;;;;;;3.58;1.35;;;19.30;98.40;;;;;;4960376;28;20094;-81
2022/06/25 00:17:38;;;;;;;2.22;1.95;;;19.30;98.70;;;;;;4977595;28;20019;-81
2022/06/25 00:20:04;;;;;;;3.30;1.55;;;19.30;97.80;;;;;;4958567;28;20034;-82
2022/06/25 00:22:30;;;;;;;2.20;1.42;;;19.20;98.80;;;;;;4959235;28;20085;-82
2022/06/25 00:24:56;;;;;;;1.60;1.27;;;19.20;98.50;;;;;;4978663;28;20425;-83
2022/06/25 00:27:21;;;;;;;1.58;1.25;;;19.30;98.70;;;;;;4943365;28;20031;-82
2022/06/25 00:29:47;;;;;;;2.88;1.52;;;19.30;98.40;;;;;;4946395;28;20062;-81
2022/06/25 00:32:13;;;;;;;5.32;1.60;;;19.10;99.90;;;;;;4947718;28;20030;-84
2022/06/25 00:34:38;;;;;;;1.70;1.58;;;19.10;99.50;;;;;;4957037;28;20050;-82
2022/06/25 00:37:05;;;;;;;1.40;1.13;;;19.00;99.50;;;;;;4963306;28;20050;-82
2022/06/25 00:39:30;;;;;;;4.22;1.70;;;19.00;99.70;;;;;;4967022;28;20033;-82
2022/06/25 00:41:56;;;;;;;5.75;1.75;;;18.80;99.90;;;;;;4962390;28;20023;-81
2022/06/25 00:44:21;;;;;;;3.50;1.40;;;19.00;99.90;;;;;;4960673;28;20039;-81
2022/06/25 00:46:47;;;;;;;3.88;1.38;;;18.80;99.90;;;;;;4943524;28;20090;-81
2022/06/25 00:49:13;;;;;;;2.95;1.65;;;18.90;99.90;;;;;;4944471;28;20375;-83
2022/06/25 00:51:39;;;;;;;1.67;1.50;;;19.00;99.00;;;;;;4960404;28;20031;-81
2022/06/25 00:54:05;;;;;;;4.28;1.58;;;18.90;99.90;;;;;;4959274;28;20038;-82
2022/06/25 00:56:39;;;;;;;3.00;1.65;;;18.90;99.90;;;;;;4941400;28;20461;-82
2022/06/25 00:59:05;;;;;;;4.25;1.40;;;18.70;99.90;;;;;;4943360;28;20023;-82
2022/06/25 01:01:34;;;;;;;2.45;1.65;;;18.70;99.90;;;;;;4937937;28;20123;-83
2022/06/25 01:04:00;;;;;;;1.75;1.50;;;18.60;99.90;;;;;;4959667;28;20047;-83
2022/06/25 01:06:27;;;;;;;2.25;1.20;;;18.70;99.90;;;;;;4962957;28;20050;-83
2022/06/25 01:08:52;;;;;;;5.38;1.98;;;18.80;99.90;;;;;;4961430;28;20037;-82
2022/06/25 01:11:18;;;;;;;3.42;1.42;;;18.70;99.90;;;;;;4962859;28;20027;-82
2022/06/25 01:13:44;;;;;;;6.65;2.15;;;18.70;99.90;;;;;;4966066;28;20117;-82
2022/06/25 01:16:09;;;;;;;3.60;1.45;;;18.60;99.90;;;;;;4965014;28;20043;-82
2022/06/25 01:18:35;;;;;;;3.65;1.48;;;18.60;99.90;;;;;;4977343;28;20042;-83
2022/06/25 01:21:00;;;;;;;2.40;1.73;;;18.60;99.90;;;;;;4959326;28;20081;-82
2022/06/25 01:23:26;;;;;;;1.85;1.40;;;18.50;99.90;;;;;;4990853;28;20042;-83
2022/06/25 01:25:52;;;;;;;4.30;1.83;;;18.50;99.90;;;;;;4981750;28;20034;-83
2022/06/25 01:28:17;;;;;;;1.35;1.25;;;18.50;99.90;;;;;;4954436;28;20039;-83
2022/06/25 01:30:43;;;;;;;4.82;2.13;;;18.50;99.90;;;;;;4958631;28;20034;-83
2022/06/25 01:33:09;;;;;;;3.22;1.73;;;18.50;99.90;;;;;;4970161;28;20042;-82
2022/06/25 01:35:35;;;;;;;4.35;1.92;;;18.50;99.90;;;;;;4961770;28;20037;-82
2022/06/25 01:38:01;;;;;;;6.82;1.65;;;18.50;99.90;;;;;;4965931;28;20022;-82
2022/06/25 01:40:27;;;;;;;2.95;1.48;;;18.50;99.90;;;;;;4952904;28;20061;-82
2022/06/25 01:43:00;;;;;;;3.42;1.70;;;18.40;99.90;;;;;;4961825;28;20027;-82
2022/06/25 01:45:31;;;;;;;2.88;1.30;;;18.30;99.90;;;;;;4974405;28;20023;-82
2022/06/25 01:47:57;;;;;;;4.15;2.00;;;18.30;99.90;;;;;;4943286;28;20061;-82
2022/06/25 01:50:22;;;;;;;2.08;1.88;;;18.30;99.90;;;;;;4958168;28;20030;-82
2022/06/25 01:52:48;;;;;;;1.77;1.42;;;18.30;99.90;;;;;;4948442;28;20039;-84
2022/06/25 01:55:14;;;;;;;2.85;1.50;;;18.50;99.90;;;;;;4956582;28;20031;-83
2022/06/25 01:57:39;;;;;;;4.18;1.42;;;18.50;99.90;;;;;;4960543;28;20482;-83
2022/06/25 02:00:15;;;;;;;2.15;1.60;;;18.60;99.90;;;;;;4939061;28;20038;-83
2022/06/25 02:02:41;;;;;;;4.15;2.05;;;18.60;99.90;;;;;;4958454;28;20565;-83
2022/06/25 02:05:08;;;;;;;5.05;2.15;;;18.60;99.90;;;;;;4974268;28;20089;-83
2022/06/25 02:07:33;;;;;;;5.25;2.15;;;18.50;99.90;;;;;;4955191;28;20137;-82
2022/06/25 02:09:59;;;;;;;3.78;1.90;;;18.40;99.90;;;;;;4955893;28;20507;-82
2022/06/25 02:12:24;;;;;;;5.63;1.73;;;18.40;99.90;;;;;;4955798;28;20081;-82
2022/06/25 02:14:50;;;;;;;5.63;2.30;;;18.40;99.90;;;;;;4972324;28;20090;-83
2022/06/25 02:17:16;;;;;;;6.65;2.53;;;18.30;99.90;;;;;;4954985;28;20089;-81
2022/06/25 02:19:41;;;;;;;6.10;3.13;;;18.30;99.90;;;;;;4932919;28;20031;-81
2022/06/25 02:22:07;;;;;;;6.43;2.90;;;18.20;99.90;;;;;;4955189;28;20039;-82
2022/06/25 02:24:33;;;;;;;5.93;2.65;;;18.40;99.90;;;;;;4967273;28;20030;-81
2022/06/25 02:26:58;;;;;;;3.92;2.53;;;18.20;99.90;;;;;;4958731;28;20098;-82
2022/06/25 02:29:24;;;;;;;3.95;2.05;;;18.20;99.90;;;;;;4959618;28;20054;-82
2022/06/25 02:31:49;;;;;;;6.78;2.30;;;18.20;99.90;;;;;;4971696;28;20031;-83
2022/06/25 02:34:15;;;;;;;5.97;2.42;;;18.40;99.90;;;;;;4955982;28;20461;-82
2022/06/25 02:36:41;;;;;;;4.53;2.22;;;18.20;99.90;;;;;;4945347;28;20039;-82
2022/06/25 02:39:06;;;;;;;4.05;2.28;;;18.10;99.90;;;;;;4957887;28;20038;-82
2022/06/25 02:41:32;;;;;;;6.32;3.20;;;18.20;99.90;;;;;;4958362;28;20528;-83
2022/06/25 02:43:57;;;;;;;5.10;2.42;;;18.10;99.90;;;;;;4956027;28;20522;-82
2022/06/25 02:46:23;;;;;;;3.35;2.13;;;18.10;99.90;;;;;;4964982;28;20086;-82
2022/06/25 02:48:48;;;;;;;4.25;1.70;;;18.00;99.90;;;;;;4953997;28;20086;-82
2022/06/25 02:51:14;;;;;;;5.30;2.67;;;18.20;99.90;;;;;;4942219;28;20019;-82
2022/06/25 02:53:40;;;;;;;5.10;2.20;;;18.00;99.90;;;;;;4956785;28;20097;-83
2022/06/25 02:58:56;;;;;;;2.72;1.77;;;17.90;99.90;;;;;;4947063;28;20062;-80
2022/06/25 03:01:23;;;;;;;4.15;2.20;;;18.00;99.90;;;;;;4925004;28;20039;-80
2022/06/25 03:03:48;;;;;;;5.43;2.40;;;17.90;99.90;;;;;;4925597;28;20391;-80
2022/06/25 03:06:14;;;;;;;3.75;1.75;;;17.80;99.90;;;;;;4941542;28;20097;-80
2022/06/25 03:08:40;;;;;;;3.03;2.05;;;17.70;99.90;;;;;;4924885;28;20046;-80
2022/06/25 03:11:05;;;;;;;5.43;1.98;;;17.70;99.90;;;;;;4923204;28;20039;-80
2022/06/25 03:13:34;;;;;;;5.05;2.42;;;17.70;99.90;;;;;;4937525;28;20030;-80
2022/06/25 03:16:00;;;;;;;4.30;2.47;;;17.70;99.90;;;;;;4939584;28;20038;-79
2022/06/25 03:18:25;;;;;;;2.13;1.77;;;17.80;99.90;;;;;;4941114;28;20403;-80
2022/06/25 03:20:51;;;;;;;4.00;1.67;;;17.70;99.90;;;;;;4940202;28;20031;-79
2022/06/25 03:23:16;;;;;;;3.53;1.92;;;17.80;99.90;;;;;;4938933;28;20030;-80
2022/06/25 03:25:42;;;;;;;2.25;1.80;;;17.70;99.90;;;;;;4951034;28;20656;-80
2022/06/25 03:28:08;;;;;;;2.70;1.90;;;17.80;99.90;;;;;;4919292;28;20047;-80
2022/06/25 03:30:33;;;;;;;5.88;2.42;;;17.60;99.90;;;;;;4922994;28;20027;-80
2022/06/25 03:32:59;;;;;;;2.72;1.52;;;17.50;99.90;;;;;;4941354;28;20059;-79
2022/06/25 03:35:24;;;;;;;4.28;2.20;;;17.60;99.90;;;;;;4921236;28;20038;-80
2022/06/25 03:37:50;;;;;;;2.75;1.83;;;17.80;99.90;;;;;;4955160;28;20274;-80
2022/06/25 03:40:16;;;;;;;4.43;2.03;;;17.60;99.90;;;;;;4937497;28;20030;-80
2022/06/25 03:42:43;;;;;;;5.40;2.10;;;17.60;99.90;;;;;;4918146;28;20133;-80
2022/06/25 03:45:09;;;;;;;5.53;2.22;;;17.60;99.90;;;;;;4940630;28;20483;-81
2022/06/25 03:47:34;;;;;;;4.28;2.17;;;17.50;99.90;;;;;;4941363;28;20542;-80
2022/06/25 03:50:00;;;;;;;2.53;2.28;;;17.50;99.90;;;;;;4936040;28;20034;-79
2022/06/25 03:52:25;;;;;;;4.50;3.10;;;17.50;99.90;;;;;;4924607;28;20072;-80
2022/06/25 03:54:51;;;;;;;2.42;2.22;;;17.50;99.90;;;;;;4941507;28;20031;-79
2022/06/25 03:57:17;;;;;;;3.42;2.22;;;17.50;99.90;;;;;;4918855;28;20023;-80
2022/06/25 03:59:42;;;;;;;3.90;2.10;;;17.50;99.90;;;;;;4918484;28;20058;-80
2022/06/25 04:02:08;;;;;;;4.50;2.20;;;17.60;99.90;;;;;;4936598;28;20382;-80
2022/06/25 04:04:33;;;;;;;4.95;1.98;;;17.70;99.90;;;;;;4956566;28;20077;-79
2022/06/25 04:06:59;;;;;;;4.13;2.00;;;17.70;99.90;;;;;;4920744;28;20046;-78
2022/06/25 04:09:24;;;;;;;3.42;2.05;;;17.80;99.90;;;;;;4942024;28;20391;-80
2022/06/25 04:11:50;;;;;;;3.85;2.20;;;17.90;99.90;;;;;;4947888;28;20470;-79
2022/06/25 04:14:15;;;;;;;4.05;1.85;;;17.90;99.90;;;;;;4935699;28;20034;-80
2022/06/25 04:16:41;;;;;;;2.60;1.88;;;18.10;99.90;;;;;;4920209;28;20058;-79
2022/06/25 04:19:07;;;;;;;4.20;2.05;;;18.20;99.90;;;;;;4936247;28;20074;-79
2022/06/25 04:21:32;;;;;;;1.95;1.60;;;18.30;99.90;;;;;;4921771;28;20035;-79
2022/06/25 04:23:58;;;;;;;3.30;1.67;;;18.40;99.90;;;;;;4935367;28;20403;-80
2022/06/25 04:26:23;;;;;;;3.15;1.50;;;18.50;99.90;;;;;;4940649;28;20034;-80
2022/06/25 04:29:04;;;;;;;2.38;2.00;;;18.70;99.90;;;;;;4936199;28;20030;-80
2022/06/25 04:31:31;;;;;;;3.05;1.63;;;18.80;99.90;;;;;;4922147;28;20045;-79
2022/06/25 04:33:57;;;;;;;2.10;1.80;;;18.90;99.90;;;;;;4927258;28;20035;-80
2022/06/25 04:36:22;;;;;;;3.00;1.52;;;19.00;99.90;;;;;;4920089;28;20081;-79
2022/06/25 04:38:48;;;;;;;5.93;2.00;;;19.20;99.90;;;;;;4943047;28;20034;-80
2022/06/25 04:41:14;;;;;;;3.28;1.77;;;19.30;99.90;;;;;;4939784;28;20073;-80
2022/06/25 04:43:40;;;;;;;4.93;1.73;;;19.50;99.90;;;;;;4951252;28;20058;-80
2022/06/25 04:46:05;;;;;;;5.18;2.25;;;19.60;99.90;;;;;;4941084;28;20129;-79
2022/06/25 04:48:31;;;;;;;2.45;1.70;;;19.70;99.90;;;;;;4959796;28;20076;-79
2022/06/25 04:50:56;;;;;;;6.25;1.80;;;19.80;99.90;;;;;;4944142;28;20027;-80
2022/06/25 04:53:22;;;;;;;3.78;1.33;;;20.10;99.90;;;;;;4955029;28;20114;-79
2022/06/25 04:55:48;;;;;;;2.08;1.90;;;20.10;99.90;;;;;;4922282;28;20449;-79
2022/06/25 04:58:13;;;;;;;1.60;1.50;;;20.20;99.60;;;;;;4957126;28;20125;-80
2022/06/25 05:00:39;;;;;;;2.25;2.05;;;20.40;99.50;;;;;;4938288;28;20030;-79
2022/06/25 05:03:05;;;;;;;4.07;1.80;;;20.50;99.40;;;;;;4926200;28;20034;-79
2022/06/25 05:05:30;;;;;;;2.72;1.60;;;20.80;99.90;;;;;;4945108;28;20151;-80
2022/06/25 05:07:56;;;;;;;2.50;1.55;;;21.00;99.50;;;;;;4943405;28;20026;-79
2022/06/25 05:10:21;;;;;;;3.53;1.55;;;21.10;99.20;;;;;;4944358;28;20533;-79
2022/06/25 05:15:31;;;;;;;2.58;2.00;;;21.40;99.90;;;;;;4947548;28;20762;-79
2022/06/25 05:17:58;;;;;;;3.33;1.42;;;21.80;97.40;;;;;;4944793;28;20035;-79
2022/06/25 05:20:24;;;;;;;2.97;1.70;;;21.90;98.30;;;;;;4938888;28;20138;-79
2022/06/25 05:22:50;;;;;;;7.05;1.90;;;21.80;96.20;;;;;;4944809;28;20142;-80
2022/06/25 05:25:15;;;;;;;3.53;2.00;;;22.20;98.40;;;;;;4943582;28;20034;-79
2022/06/25 05:27:41;;;;;;;2.42;1.67;;;22.20;97.40;;;;;;4926623;28;20101;-80
2022/06/25 05:30:07;;;;;;;3.28;1.63;;;22.30;95.20;;;;;;4959511;28;20054;-80
2022/06/25 05:32:35;;;;;;;4.30;1.30;;;21.90;95.90;;;;;;4941552;28;20032;-79
2022/06/25 05:35:01;;;;;;;2.33;1.83;;;22.40;95.70;;;;;;4925726;28;20035;-80
2022/06/25 05:37:26;;;;;;;2.13;1.70;;;22.40;95.50;;;;;;4921876;28;20442;-80
2022/06/25 05:39:52;;;;;;;1.83;1.60;;;23.00;99.10;;;;;;4939807;28;20083;-80
2022/06/25 05:42:19;;;;;;;2.15;1.40;;;23.40;95.90;;;;;;4937962;28;20035;-80
2022/06/25 05:44:45;;;;;;;3.58;1.73;;;23.50;94.60;;;;;;4934964;28;20026;-79
2022/06/25 05:47:11;;;;;;;3.25;1.55;;;23.80;99.20;;;;;;4941803;28;20055;-79
2022/06/25 05:49:37;;;;;;;2.55;1.42;;;24.00;98.50;;;;;;4938718;28;20903;-79
2022/06/25 05:52:02;;;;;;;4.43;1.50;;;24.00;96.30;;;;;;4943482;28;20455;-79
2022/06/25 05:54:28;;;;;;;3.25;1.92;;;24.30;96.30;;;;;;4920439;28;20581;-79
2022/06/25 05:56:54;;;;;;;4.40;1.80;;;24.50;97.40;;;;;;4938135;28;20065;-79
2022/06/25 05:59:19;;;;;;;2.83;1.80;;;24.20;94.10;;;;;;4938743;28;20130;-79
2022/06/25 06:01:45;;;;;;;1.42;1.33;;;23.80;92.90;;;;;;4944156;28;20031;-79
2022/06/25 06:04:10;;;;;;;3.15;1.83;;;23.80;93.00;;;;;;4941403;28;20093;-78
2022/06/25 06:06:36;;;;;;;2.05;1.80;;;23.90;92.50;;;;;;4961544;28;20041;-79
2022/06/25 06:09:01;;;;;;;3.13;1.63;;;23.70;93.10;;;;;;4926358;28;20034;-79
2022/06/25 06:11:28;;;;;;;4.43;1.85;;;23.70;92.50;;;;;;4938393;28;20030;-80
2022/06/25 06:13:54;;;;;;;3.85;1.90;;;23.40;92.80;;;;;;4939771;28;20487;-79
2022/06/25 06:16:20;;;;;;;1.77;1.60;;;23.90;92.30;;;;;;4956982;28;20034;-79
2022/06/25 06:18:45;;;;;;;2.78;1.70;;;24.50;92.10;;;;;;4959815;28;20379;-79
2022/06/25 06:21:11;;;;;;;2.70;1.77;;;25.10;91.10;;;;;;4923797;28;20054;-79
2022/06/25 06:23:37;;;;;;;2.45;1.83;;;24.70;91.70;;;;;;4955577;28;20042;-78
2022/06/25 06:26:02;;;;;;;3.70;1.83;;;24.60;91.10;;;;;;4945449;28;20184;-79
2022/06/25 06:28:28;;;;;;;4.20;1.90;;;24.70;91.40;;;;;;4941690;28;20038;-79
2022/06/25 06:30:53;;;;;;;7.38;1.98;;;25.30;91.00;;;;;;4955935;28;20198;-79
2022/06/25 06:33:19;;;;;;;2.33;1.33;;;25.70;94.80;;;;;;4917957;28;20042;-79
2022/06/25 06:35:44;;;;;;;5.30;1.75;;;25.90;90.50;;;;;;4919677;28;20038;-79
2022/06/25 06:38:10;;;;;;;4.05;2.17;;;26.10;93.30;;;;;;4939622;28;20035;-79
2022/06/25 06:40:36;;;;;;;2.45;1.45;;;26.70;88.20;;;;;;4952625;28;20474;-79
2022/06/25 06:43:02;;;;;;;6.22;1.77;;;26.30;88.30;;;;;;4941126;28;20049;-79
2022/06/25 06:45:27;;;;;;;3.88;1.90;;;26.50;90.70;;;;;;4942205;28;20023;-80
2022/06/25 06:47:53;;;;;;;2.17;1.63;;;26.30;89.60;;;;;;4938485;28;20769;-80
2022/06/25 06:50:18;;;;;;;2.25;2.08;;;26.90;91.50;;;;;;4936898;28;20034;-79
2022/06/25 06:52:54;;;;;;;5.70;2.10;;;27.30;85.70;;;;;;4910496;28;20031;-80
2022/06/25 06:55:22;;;;;;;4.50;1.33;;;27.00;86.30;;;;;;4938678;28;20561;-80
2022/06/25 06:57:48;;;;;;;2.72;1.75;;;27.30;83.40;;;;;;4911893;28;20394;-81
2022/06/25 07:00:14;;;;;;;3.75;1.30;;;27.20;85.80;;;;;;4916955;28;20046;-82
2022/06/25 07:02:39;;;;;;;2.20;1.50;;;27.40;84.00;;;;;;4936419;28;20049;-81
2022/06/25 07:05:05;;;;;;;3.88;1.70;;;26.10;81.80;;;;;;4931562;28;20110;-81
2022/06/25 07:07:34;;;;;;;5.45;1.70;;;26.30;82.90;;;;;;4935970;28;20038;-82
2022/06/25 07:10:00;;;;;;;5.57;1.40;;;26.50;80.60;;;;;;4905227;28;20526;-83
2022/06/25 07:12:25;;;;;;;4.55;1.67;;;26.40;80.30;;;;;;4944233;28;20039;-83
2022/06/25 07:14:51;;;;;;;2.08;1.55;;;26.20;85.40;;;;;;4941763;28;20047;-83
2022/06/25 07:17:17;;;;;;;2.75;1.55;;;26.70;81.60;;;;;;4920145;28;20034;-82
2022/06/25 07:19:42;;;;;;;3.13;1.80;;;26.40;80.50;;;;;;4928060;28;20066;-83
2022/06/25 07:22:09;;;;;;;2.20;1.30;;;27.30;86.30;;;;;;4920774;28;20405;-82
2022/06/25 07:24:35;;;;;;;1.98;1.63;;;27.70;80.60;;;;;;4940204;28;20037;-82
2022/06/25 07:27:00;;;;;;;1.65;1.25;;;27.90;79.20;;;;;;4924148;28;20039;-82
2022/06/25 07:29:26;;;;;;;3.42;1.42;;;27.80;83.50;;;;;;4942203;28;20567;-81
2022/06/25 07:31:52;;;;;;;3.72;1.85;;;28.30;77.50;;;;;;4940194;28;20057;-81
2022/06/25 07:34:17;;;;;;;3.85;1.25;;;28.30;76.30;;;;;;4952986;28;20427;-81
2022/06/25 07:36:43;;;;;;;4.32;1.83;;;27.80;77.10;;;;;;4924691;28;20677;-80
2022/06/25 07:39:09;;;;;;;4.53;1.42;;;28.10;77.30;;;;;;4921026;28;20510;-80
2022/06/25 07:41:34;;;;;;;2.38;1.20;;;28.30;74.10;;;;;;4935389;28;20147;-80
2022/06/25 07:44:00;;;;;;;2.00;1.15;;;28.20;73.30;;;;;;4960285;28;20125;-80
2022/06/25 07:46:26;;;;;;;7.53;2.33;;;28.30;77.90;;;;;;4953708;28;20034;-80
2022/06/25 07:48:52;;;;;;;2.67;1.10;;;29.70;79.50;;;;;;4956477;28;20533;-80
2022/06/25 07:54:02;;;;;;;6.53;1.30;;;28.70;73.50;;;;;;4943751;28;20054;-80
2022/06/25 07:56:27;;;;;;;2.45;1.20;;;29.20;75.10;;;;;;4953633;28;20035;-80
2022/06/25 07:58:53;;;;;;;4.80;1.58;;;29.70;75.50;;;;;;4933338;28;20125;-81
2022/06/25 08:01:18;;;;;;;3.15;1.23;;;30.50;72.50;;;;;;4951965;28;20043;-81
2022/06/25 08:03:44;;;;;;;4.28;1.42;;;30.30;71.20;;;;;;4922709;28;20058;-80
2022/06/25 08:06:10;;;;;;;6.82;1.38;;;30.30;72.80;;;;;;4952126;28;20105;-80
2022/06/25 08:08:35;;;;;;;3.55;1.10;;;30.20;73.40;;;;;;4940225;28;20039;-80
2022/06/25 08:11:01;;;;;;;2.83;1.42;;;30.10;70.10;;;;;;4935927;28;20037;-81
2022/06/25 08:13:27;;;;;;;2.65;1.50;;;29.90;68.20;;;;;;4943285;28;20486;-81
2022/06/25 08:15:53;;;;;;;3.28;1.35;;;29.60;67.00;;;;;;4922133;28;20049;-81
2022/06/25 08:18:18;;;;;;;3.33;1.25;;;30.30;69.40;;;;;;4942464;28;20089;-80
2022/06/25 08:20:44;;;;;;;2.50;1.30;;;30.30;64.60;;;;;;4940961;28;20562;-81
2022/06/25 08:23:09;;;;;;;2.22;2.03;;;30.00;66.20;;;;;;4956135;28;20035;-80
2022/06/25 08:25:35;;;;;;;2.83;1.27;;;29.90;65.50;;;;;;4961572;28;20054;-80
2022/06/25 08:28:01;;;;;;;2.80;1.33;;;30.60;67.80;;;;;;4956236;28;20051;-80
2022/06/25 08:30:26;;;;;;;2.38;1.17;;;30.60;66.90;;;;;;4943096;28;20035;-80
2022/06/25 08:32:53;;;;;;;3.08;1.15;;;30.90;65.90;;;;;;4925123;28;20153;-80
2022/06/25 08:35:18;;;;;;;4.53;1.33;;;30.10;63.00;;;;;;4926816;28;20027;-80
2022/06/25 08:37:45;;;;;;;2.22;1.17;;;29.50;64.30;;;;;;4940606;28;20042;-80
2022/06/25 08:40:11;;;;;;;3.33;1.17;;;29.60;64.50;;;;;;4943870;28;20042;-81
2022/06/25 08:42:37;;;;;;;9.60;1.65;;;29.90;65.30;;;;;;4944486;28;20565;-79
2022/06/25 08:45:03;;;;;;;2.72;1.35;;;30.50;62.70;;;;;;4942600;28;20037;-80
2022/06/25 08:47:28;;;;;;;3.25;1.08;;;30.60;64.90;;;;;;4943303;28;20126;-82
2022/06/25 08:49:54;;;;;;;3.10;1.67;;;31.00;60.60;;;;;;4942297;28;20137;-81
2022/06/25 08:52:19;;;;;;;6.68;2.17;;;30.90;65.70;;;;;;4958485;28;20578;-80
2022/06/25 08:54:48;;;;;;;2.63;1.17;;;30.90;64.90;;;;;;4939074;28;20031;-80
2022/06/25 08:57:14;;;;;;;2.80;1.25;;;31.40;64.40;;;;;;4939727;28;20122;-79
2022/06/25 08:59:40;;;;;;;5.53;1.92;;;31.20;61.30;;;;;;4925994;28;20820;-79
2022/06/25 09:02:05;;;;;;;3.78;1.40;;;31.20;64.50;;;;;;4958797;28;20038;-80
2022/06/25 09:04:34;;;;;;;6.35;1.83;;;31.90;63.20;;;;;;4958024;28;20038;-79
2022/06/25 09:07:15;;;;;;;3.72;1.30;;;31.90;62.70;;;;;;4939795;28;20470;-79
2022/06/25 09:09:49;;;;;;;3.70;1.38;;;32.70;61.50;;;;;;4958803;28;20030;-79
2022/06/25 09:12:15;;;;;;;5.28;1.58;;;32.80;59.90;;;;;;4941240;28;20046;-79
2022/06/25 09:14:40;;;;;;;4.75;1.73;;;32.80;59.00;;;;;;4923769;28;20086;-79
2022/06/25 09:17:09;;;;;;;3.05;1.42;;;31.80;57.30;;;;;;4924422;28;20038;-78
2022/06/25 09:19:44;;;;;;;5.60;1.35;;;30.90;57.30;;;;;;4940193;28;20031;-79
2022/06/25 09:22:11;;;;;;;4.00;1.40;;;31.00;58.80;;;;;;4952748;28;20074;-78
2022/06/25 09:24:44;;;;;;;3.63;1.40;;;31.90;58.90;;;;;;4937719;28;20502;-78
2022/06/25 09:27:10;;;;;;;3.45;1.50;;;32.20;58.90;;;;;;4939960;28;20478;-79
2022/06/25 09:29:43;;;;;;;2.90;0.95;;;32.10;58.70;;;;;;4939901;28;20030;-79
2022/06/25 09:32:08;;;;;;;2.25;1.15;;;32.50;56.70;;;;;;4943433;28;20035;-79
2022/06/25 09:34:35;;;;;;;3.45;1.15;;;32.90;56.90;;;;;;4955150;28;20055;-80
2022/06/25 09:37:25;;;;;;;2.28;1.30;;;32.50;58.50;;;;;;4936359;28;20059;-79
2022/06/25 09:39:52;;;;;;;4.38;1.42;;;32.50;55.60;;;;;;4953013;28;20534;-80
2022/06/25 09:42:26;;;;;;;4.88;1.52;;;32.30;56.00;;;;;;4962815;28;20044;-81
2022/06/25 09:45:00;;;;;;;1.93;1.10;;;32.10;56.00;;;;;;4961063;28;20035;-80
2022/06/25 09:47:26;;;;;;;1.88;1.20;;;33.00;56.50;;;;;;4963874;28;20049;-80
2022/06/25 09:50:06;;;;;;;3.85;1.30;;;33.20;54.20;;;;;;4942576;28;20924;-80
2022/06/25 09:52:32;;;;;;;5.28;1.20;;;33.30;57.10;;;;;;4954516;28;20039;-80
2022/06/25 09:54:58;;;;;;;3.38;1.17;;;33.10;55.60;;;;;;4956048;28;20065;-80
2022/06/25 09:57:23;;;;;;;7.00;1.38;;;33.10;55.50;;;;;;4945414;28;20821;-82
2022/06/25 09:59:50;;;;;;;2.78;1.08;;;33.60;55.70;;;;;;4943794;28;20053;-81
2022/06/25 10:02:16;;;;;;;2.30;1.48;;;33.80;54.40;;;;;;4940656;28;20458;-82
2022/06/25 10:04:43;;;;;;;4.18;1.20;;;32.60;52.80;;;;;;4941456;28;20042;-81
2022/06/25 10:07:09;;;;;;;2.45;1.20;;;32.40;53.30;;;;;;4920960;28;20063;-81
2022/06/25 10:09:35;;;;;;;4.25;1.15;;;33.30;54.30;;;;;;4959895;28;20427;-79
2022/06/25 10:12:01;;;;;;;2.90;1.40;;;32.90;55.00;;;;;;4955875;28;20031;-80
2022/06/25 10:14:26;;;;;;;4.30;1.38;;;33.50;53.70;;;;;;4945604;28;20039;-80
2022/06/25 10:16:53;;;;;;;2.55;1.15;;;33.60;53.80;;;;;;4944717;28;20070;-81
2022/06/25 10:19:21;;;;;;;3.10;1.10;;;33.40;53.40;;;;;;4940149;28;20435;-82
2022/06/25 10:21:47;;;;;;;3.72;1.23;;;33.40;54.70;;;;;;4939047;28;20402;-81
2022/06/25 10:24:15;;;;;;;4.95;1.52;;;33.40;54.10;;;;;;4943675;28;20050;-81
2022/06/25 10:26:40;;;;;;;2.63;1.40;;;33.90;53.40;;;;;;4950908;28;20078;-80
2022/06/25 10:29:28;;;;;;;3.13;1.48;;;33.70;52.20;;;;;;4925868;28;20038;-82
2022/06/25 10:32:16;;;;;;;6.20;1.23;;;34.30;54.00;;;;;;4939986;28;20046;-82
2022/06/25 10:34:54;;;;;;;4.25;1.13;;;34.40;52.90;;;;;;4939042;28;20535;-82
2022/06/25 10:37:20;;;;;;;1.80;1.17;;;34.90;51.20;;;;;;4969371;28;20066;-81
2022/06/25 10:39:55;;;;;;;5.13;1.73;;;35.20;51.70;;;;;;4943193;28;20081;-82
2022/06/25 10:45:32;;;;;;;4.63;1.33;;;35.20;50.90;;;;;;4959902;28;19980;-83
2022/06/25 10:47:58;;;;;;;3.35;1.30;;;34.90;52.50;;;;;;4958390;28;20446;-81
2022/06/25 10:50:25;;;;;;;2.90;1.30;;;35.30;49.80;;;;;;4942961;28;20039;-82
2022/06/25 10:53:11;;;;;;;4.47;1.40;;;35.70;50.10;;;;;;4969396;28;20018;-81
2022/06/25 10:55:40;;;;;;;1.92;1.10;;;36.00;50.10;;;;;;4970055;28;20037;-81
2022/06/25 10:58:21;;;;;;;;;;;35.90;50.80;;;;;;5041437;28;20123;-82
2022/06/25 11:01:01;;;;;;;1.65;1.20;;;35.90;48.20;;;;;;5032771;28;19966;-80
2022/06/25 11:03:30;;;;;;;3.20;0.98;;;35.80;50.50;;;;;;5052107;28;20026;-82
2022/06/25 11:05:56;;;;;;;3.30;1.33;;;36.00;48.70;;;;;;5024727;28;20496;-82
2022/06/25 11:08:23;;;;;;;1.38;0.90;;;36.50;49.20;;;;;;5023655;28;20057;-83
2022/06/25 11:10:48;;;;;;;1.75;1.10;;;36.80;48.20;;;;;;5008399;28;20029;-82
2022/06/25 11:13:14;;;;;;;1.80;0.90;;;36.80;49.80;;;;;;5010138;28;20030;-80
2022/06/25 11:15:41;;;;;;;1.55;0.82;;;37.00;47.40;;;;;;5011207;28;20397;-82
2022/06/25 11:18:13;;;;;;;2.10;0.80;;;37.10;47.00;;;;;;5022178;28;20525;-81
2022/06/25 11:20:39;;;;;;;1.67;0.93;;;37.00;45.60;;;;;;4338920;28;10000567;-82
2022/06/25 11:23:05;;;;;;;3.55;1.10;;;36.70;47.00;;;;;;5017772;28;20046;-83
2022/06/25 11:28:52;;;;;;;7.88;1.45;;;37.50;47.80;;;;;;5045486;28;20040;-83
2022/06/25 11:31:21;;;;;;;2.28;1.00;;;37.50;46.70;;;;;;5040669;28;20041;-82
2022/06/25 11:33:47;;;;;;;2.65;1.13;;;37.20;44.10;;;;;;5026934;28;20090;-81
2022/06/25 11:36:13;;;;;;;2.80;1.00;;;37.60;45.60;;;;;;5015093;28;20046;-82
2022/06/25 11:38:40;;;;;;;3.22;1.00;;;37.70;45.40;;;;;;5020853;28;20493;-82
2022/06/25 11:41:05;;;;;;;5.15;1.08;;;37.60;46.20;;;;;;5009801;28;20043;-83
2022/06/25 11:43:31;;;;;;;2.80;0.95;;;37.20;45.00;;;;;;5015343;28;20053;-81
2022/06/25 11:45:57;;;;;;;2.15;1.30;;;36.60;44.40;;;;;;5015087;28;20029;-83
2022/06/25 11:48:30;;;;;;;3.08;0.95;;;36.60;44.30;;;;;;5023076;28;20107;-82
2022/06/25 11:50:59;;;;;;;2.83;1.33;;;36.80;44.40;;;;;;5014424;28;20045;-83
2022/06/25 11:53:25;;;;;;;3.28;1.10;;;37.10;45.80;;;;;;4999363;28;20052;-83
2022/06/25 11:55:57;;;;;;;2.20;1.00;;;37.70;44.60;;;;;;5006901;28;20021;-82
2022/06/25 11:58:26;;;;;;;1.27;0.82;;;37.70;45.40;;;;;;5016890;28;20493;-83
2022/06/25 12:00:57;;;;;;;3.38;0.88;;;37.60;45.00;;;;;;5027276;28;20029;-82
2022/06/25 12:03:24;;;;;;;2.53;1.25;;;37.40;43.50;;;;;;4995490;28;20037;-83
2022/06/25 12:05:51;;;;;;;2.05;1.02;;;37.80;45.50;;;;;;5001413;28;20389;-83
2022/06/25 12:08:17;;;;;;;3.17;1.33;;;37.70;43.70;;;;;;5014287;28;20105;-83
2022/06/25 12:10:45;;;;;;;1.25;0.80;;;37.70;42.50;;;;;;5002170;28;20563;-84
2022/06/25 12:13:14;;;;;;;2.08;1.13;;;37.90;44.80;;;;;;5008617;28;20529;-82
2022/06/25 12:15:40;;;;;;;3.90;1.10;;;38.60;44.60;;;;;;5002749;28;20413;-83
2022/06/25 12:18:06;;;;;;;2.25;1.10;;;39.10;43.90;;;;;;4994887;28;20058;-81
2022/06/25 12:20:31;;;;;;;4.47;1.15;;;38.80;43.60;;;;;;4990128;28;20035;-82
2022/06/25 12:22:57;;;;;;;2.90;0.80;;;39.10;41.90;;;;;;5022958;28;20029;-82
2022/06/25 12:25:27;;;;;;;2.20;1.20;;;39.00;43.40;;;;;;5001127;28;20031;-80
2022/06/25 12:27:53;;;;;;;2.22;1.08;;;39.20;41.80;;;;;;5006188;28;20413;-80
2022/06/25 12:30:25;;;;;;;2.20;1.13;;;39.50;42.90;;;;;;5001293;28;20033;-84
2022/06/25 12:32:52;;;;;;;4.63;1.08;;;39.20;41.10;;;;;;5040011;28;20481;-79
2022/06/25 12:35:21;;;;;;;1.88;1.08;;;39.00;42.40;;;;;;5007360;28;20026;-81
2022/06/25 12:38:12;;;;;;;5.10;1.00;;;39.00;41.40;;;;;;5011770;28;20124;-82
2022/06/25 12:40:41;;;;;;;1.35;1.13;;;38.50;40.70;;;;;;5005706;28;20114;-81
2022/06/25 12:43:07;;;;;;;5.95;1.00;;;38.20;41.10;;;;;;5019205;28;20033;-81
2022/06/25 12:45:33;;;;;;;4.57;1.38;;;38.20;41.90;;;;;;4993967;28;20081;-81
2022/06/25 12:47:59;;;;;;;2.63;1.00;;;37.60;41.60;;;;;;5023925;28;20030;-81
2022/06/25 12:50:29;;;;;;;3.15;1.00;;;37.40;41.20;;;;;;4984717;28;20121;-83
2022/06/25 12:52:55;;;;;;;1.73;0.95;;;37.20;41.30;;;;;;5003230;28;20790;-81
2022/06/25 12:55:22;;;;;;;0.70;0.60;;;37.30;41.70;;;;;;5006641;28;20034;-80
2022/06/25 12:57:48;;;;;;;4.10;1.17;;;37.40;41.20;;;;;;5031838;28;20124;-80
2022/06/25 13:00:21;;;;;;;4.75;0.82;;;37.50;41.00;;;;;;5017946;28;20133;-80